createdAt,value
2019-05-16T00:00:54.939Z,92.10
2019-05-16T00:03:27.847Z,91.90
2019-05-16T00:05:58.397Z,92.40
2019-05-16T00:08:29.304Z,92.00
2019-05-16T00:11:00.802Z,92.40
2019-05-16T00:13:31.707Z,92.40
2019-05-16T00:16:02.594Z,92.30
2019-05-16T00:18:33.618Z,92.20
2019-05-16T00:21:04.656Z,92.30
2019-05-16T00:23:37.701Z,92.00
2019-05-16T00:26:07.823Z,92.20
2019-05-16T00:28:38.831Z,92.00
2019-05-16T00:31:09.529Z,92.00
2019-05-16T00:33:40.436Z,91.90
2019-05-16T00:36:11.091Z,91.70
2019-05-16T00:38:41.939Z,91.70
2019-05-16T00:41:12.849Z,91.70
2019-05-16T00:43:43.625Z,91.50
2019-05-16T00:46:14.639Z,91.40
2019-05-16T00:48:45.345Z,91.30
2019-05-16T00:51:18.131Z,91.00
2019-05-16T00:53:48.405Z,90.90
2019-05-16T00:56:19.241Z,90.80
2019-05-16T00:58:50.176Z,90.70
2019-05-16T01:01:21.155Z,90.60
2019-05-16T01:03:52.151Z,90.40
2019-05-16T01:06:23.224Z,90.50
2019-05-16T01:08:54.240Z,90.40
2019-05-16T01:11:27.642Z,90.00
2019-05-16T01:13:57.869Z,90.00
2019-05-16T01:16:28.930Z,89.70
2019-05-16T01:18:59.829Z,89.20
2019-05-16T01:21:30.980Z,87.80
2019-05-16T01:24:02.024Z,88.10
2019-05-16T01:26:33.060Z,87.80
2019-05-16T01:29:03.973Z,86.50
2019-05-16T01:31:34.753Z,87.50
2019-05-16T01:34:07.656Z,86.70
2019-05-16T01:36:40.490Z,86.20
2019-05-16T01:39:09.979Z,85.40
2019-05-16T01:41:40.804Z,85.20
2019-05-16T01:44:11.762Z,84.20
2019-05-16T01:46:42.592Z,84.70
2019-05-16T01:49:13.365Z,84.40
2019-05-16T01:51:44.270Z,82.00
2019-05-16T01:54:14.973Z,82.80
2019-05-16T01:56:47.934Z,82.30
2019-05-16T01:59:18.201Z,82.70
2019-05-16T02:01:49.048Z,81.40
2019-05-16T02:04:19.773Z,80.60
2019-05-16T02:06:54.484Z,80.30
2019-05-16T02:09:22.410Z,79.60
2019-05-16T02:11:53.539Z,79.30
2019-05-16T02:14:24.549Z,78.50
2019-05-16T02:16:55.445Z,79.70
2019-05-16T02:19:27.865Z,78.90
2019-05-16T02:21:59.623Z,77.20
2019-05-16T02:24:30.855Z,76.80
2019-05-16T02:27:01.628Z,77.10
2019-05-16T02:29:32.609Z,77.00
2019-05-16T02:32:03.617Z,77.70
2019-05-16T02:34:34.612Z,75.90
2019-05-16T02:37:24.273Z,75.80
2019-05-16T02:39:40.724Z,75.80
2019-05-16T02:42:11.984Z,75.80
2019-05-16T02:44:42.207Z,75.00
2019-05-16T02:47:13.238Z,74.60
2019-05-16T02:49:44.094Z,74.20
2019-05-16T02:52:15.063Z,74.00
2019-05-16T02:54:46.059Z,75.40
2019-05-16T02:57:17.069Z,74.10
2019-05-16T02:59:50.678Z,74.00
2019-05-16T03:02:20.501Z,74.80
2019-05-16T03:04:52.034Z,73.40
2019-05-16T03:07:36.068Z,72.80
2019-05-16T03:09:55.630Z,73.60
2019-05-16T03:12:30.846Z,72.10
2019-05-16T03:15:02.527Z,71.80
2019-05-16T03:17:35.771Z,72.20
2019-05-16T03:20:06.753Z,72.80
2019-05-16T03:22:40.625Z,72.50
2019-05-16T03:25:11.496Z,71.60
2019-05-16T03:27:42.477Z,71.30
2019-05-16T03:30:16.148Z,71.30
2019-05-16T03:32:46.078Z,70.50
2019-05-16T03:35:19.354Z,70.30
2019-05-16T03:37:55.869Z,70.90
2019-05-16T03:40:24.764Z,70.00
2019-05-16T03:42:55.927Z,69.60
2019-05-16T03:45:26.801Z,71.30
2019-05-16T03:47:57.801Z,70.40
2019-05-16T03:50:30.688Z,71.30
2019-05-16T03:53:01.492Z,71.70
2019-05-16T03:55:34.286Z,71.90
2019-05-16T03:58:06.460Z,70.10
2019-05-16T04:00:45.300Z,68.70
2019-05-16T04:03:11.976Z,69.50
2019-05-16T04:05:44.152Z,69.50
2019-05-16T04:08:19.434Z,68.40
2019-05-16T04:10:46.948Z,66.70
2019-05-16T04:13:20.988Z,66.00
2019-05-16T04:15:52.264Z,65.90
2019-05-16T04:18:22.857Z,66.70
2019-05-16T04:20:53.721Z,64.80
2019-05-16T04:23:24.721Z,67.00
2019-05-16T04:25:55.380Z,67.40
2019-05-16T04:28:26.403Z,66.60
2019-05-16T04:30:57.054Z,67.30
2019-05-16T04:33:30.610Z,63.70
2019-05-16T04:36:01.278Z,63.30
2019-05-16T04:38:40.880Z,66.00
2019-05-16T04:41:04.535Z,66.00
2019-05-16T04:43:35.327Z,66.80
2019-05-16T04:46:06.312Z,66.20
2019-05-16T04:48:37.152Z,65.30
2019-05-16T04:51:10.439Z,64.90
2019-05-16T04:53:42.553Z,64.00
2019-05-16T04:56:12.080Z,65.10
2019-05-16T04:58:42.769Z,61.30
2019-05-16T05:01:13.602Z,62.10
2019-05-16T05:04:00.228Z,63.40
2019-05-16T05:06:16.796Z,62.10
2019-05-16T05:08:53.844Z,61.40
2019-05-16T05:11:21.473Z,60.70
2019-05-16T05:13:52.171Z,60.70
2019-05-16T05:16:23.039Z,62.10
2019-05-16T05:18:53.868Z,62.40
2019-05-16T05:21:24.646Z,60.00
2019-05-16T05:23:55.529Z,59.40
2019-05-16T05:26:26.492Z,60.20
2019-05-16T05:28:59.687Z,60.50
2019-05-16T05:31:34.527Z,62.10
2019-05-16T05:34:01.781Z,60.90
2019-05-16T05:36:33.028Z,61.20
2019-05-16T05:39:11.111Z,58.10
2019-05-16T05:41:40.095Z,58.40
2019-05-16T05:44:10.823Z,56.40
2019-05-16T05:46:41.641Z,57.00
2019-05-16T05:49:12.330Z,56.20
2019-05-16T05:51:43.187Z,57.30
2019-05-16T05:54:14.082Z,57.50
2019-05-16T05:56:44.871Z,57.50
2019-05-16T05:59:15.944Z,57.30
2019-05-16T06:01:46.963Z,56.70
2019-05-16T06:04:19.683Z,56.80
2019-05-16T06:06:50.514Z,57.50
2019-05-16T06:09:28.434Z,56.50
2019-05-16T06:11:53.737Z,58.30
2019-05-16T06:14:24.411Z,58.00
2019-05-16T06:16:55.250Z,58.80
2019-05-16T06:19:29.622Z,61.20
2019-05-16T06:22:01.053Z,62.10
2019-05-16T06:24:32.155Z,65.70
2019-05-16T06:27:03.389Z,66.90
2019-05-16T06:29:34.313Z,67.40
2019-05-16T06:32:05.014Z,70.10
2019-05-16T06:34:35.756Z,71.70
2019-05-16T06:37:06.714Z,72.90
2019-05-16T06:39:41.937Z,73.10
2019-05-16T06:42:09.948Z,74.60
2019-05-16T06:44:40.709Z,74.50
2019-05-16T06:47:19.390Z,74.40
2019-05-16T06:49:43.845Z,74.60
2019-05-16T06:52:14.611Z,75.60
2019-05-16T06:54:45.669Z,76.30
2019-05-16T06:57:16.603Z,76.20
2019-05-16T06:59:49.860Z,75.90
2019-05-16T07:02:27.805Z,76.10
2019-05-16T07:04:51.931Z,76.60
2019-05-16T07:07:43.171Z,74.90
2019-05-16T07:10:14.251Z,75.10
2019-05-16T07:12:44.934Z,75.00
2019-05-16T07:15:15.698Z,73.80
2019-05-16T07:17:46.634Z,73.50
2019-05-16T07:20:17.522Z,72.70
2019-05-16T07:22:50.328Z,72.40
2019-05-16T07:25:20.963Z,71.50
2019-05-16T07:27:53.018Z,71.10
2019-05-16T07:30:23.670Z,71.00
2019-05-16T07:32:54.581Z,71.80
2019-05-16T07:35:25.442Z,71.40
2019-05-16T07:37:56.227Z,69.90
2019-05-16T07:40:27.155Z,69.70
2019-05-16T07:42:59.976Z,69.90
2019-05-16T07:45:30.835Z,65.70
2019-05-16T07:48:01.846Z,66.50
2019-05-16T07:50:33.082Z,64.00
2019-05-16T07:53:03.925Z,64.30
2019-05-16T07:55:34.673Z,62.90
2019-05-16T07:58:05.550Z,62.60
2019-05-16T08:00:49.508Z,62.80
2019-05-16T08:03:10.445Z,58.70
2019-05-16T08:05:41.368Z,59.50
2019-05-16T08:08:12.320Z,61.90
2019-05-16T08:10:46.598Z,59.40
2019-05-16T08:13:17.606Z,60.20
2019-05-16T08:15:50.086Z,60.20
2019-05-16T08:20:52.760Z,59.50
2019-05-16T08:23:23.631Z,58.40
2019-05-16T08:25:54.387Z,57.50
2019-05-16T08:28:25.153Z,58.70
2019-05-16T08:30:55.814Z,58.00
2019-05-16T08:33:26.708Z,56.30
2019-05-16T08:36:01.239Z,56.60
2019-05-16T08:38:30.805Z,56.90
2019-05-16T08:41:11.825Z,56.80
2019-05-16T08:43:34.206Z,57.10
2019-05-16T08:46:05.141Z,57.90
2019-05-16T08:48:36.257Z,57.10
2019-05-16T08:50:09.848Z,59.50
2019-05-16T08:51:06.977Z,57.00
2019-05-16T08:53:42.934Z,58.00
2019-05-16T08:56:13.006Z,57.00
2019-05-16T08:58:42.380Z,55.70
2019-05-16T09:01:14.896Z,56.60
2019-05-16T09:03:45.589Z,57.30
2019-05-16T09:06:16.465Z,56.90
2019-05-16T09:08:47.790Z,57.20
2019-05-16T09:11:33.744Z,55.80
2019-05-16T09:13:50.794Z,57.30
2019-05-16T09:16:21.771Z,56.00
2019-05-16T09:18:52.685Z,56.60
2019-05-16T09:21:23.659Z,57.20
2019-05-16T09:23:54.530Z,56.40
2019-05-16T09:26:27.654Z,56.00
2019-05-16T09:28:57.593Z,55.90
2019-05-16T09:31:28.576Z,55.50
2019-05-16T09:33:59.261Z,56.70
2019-05-16T09:36:30.027Z,55.90
2019-05-16T09:39:00.906Z,55.50
2019-05-16T09:41:46.249Z,55.50
2019-05-16T09:44:04.104Z,56.70
2019-05-16T09:46:37.418Z,55.30
2019-05-16T09:49:16.701Z,55.70
2019-05-16T09:51:39.573Z,54.80
2019-05-16T09:54:10.422Z,55.40
2019-05-16T09:56:41.267Z,56.00
2019-05-16T09:59:12.242Z,56.00
2019-05-16T10:01:43.073Z,55.90
2019-05-16T10:04:14.159Z,55.70
2019-05-16T10:06:45.079Z,56.20
2019-05-16T10:09:17.538Z,56.60
2019-05-16T10:11:50.909Z,56.50
2019-05-16T10:14:20.343Z,56.80
2019-05-16T10:16:51.418Z,57.40
2019-05-16T10:19:22.211Z,57.30
2019-05-16T10:21:53.059Z,58.10
2019-05-16T10:24:26.695Z,59.70
2019-05-16T10:26:57.150Z,59.30
2019-05-16T10:29:28.300Z,59.80
2019-05-16T10:31:59.359Z,60.80
2019-05-16T10:34:30.243Z,60.90
2019-05-16T10:37:00.951Z,61.90
2019-05-16T10:39:37.261Z,62.30
2019-05-16T10:42:22.032Z,64.20
2019-05-16T10:44:39.706Z,64.80
2019-05-16T10:47:10.551Z,66.70
2019-05-16T10:49:41.992Z,67.90
2019-05-16T10:52:16.441Z,69.50
2019-05-16T10:54:57.278Z,70.20
2019-05-16T10:57:18.438Z,71.20
2019-05-16T11:00:05.327Z,72.40
2019-05-16T11:02:21.489Z,73.40
2019-05-16T11:05:00.162Z,74.70
2019-05-16T11:07:29.491Z,73.60
2019-05-16T11:10:02.946Z,74.00
2019-05-16T11:12:55.002Z,72.60
2019-05-16T11:15:01.286Z,72.30
2019-05-16T11:17:32.173Z,71.90
2019-05-16T11:20:03.062Z,72.70
2019-05-16T11:22:36.765Z,73.10
2019-05-16T11:25:20.773Z,73.60
2019-05-16T11:27:39.903Z,73.80
2019-05-16T11:30:10.899Z,74.20
2019-05-16T11:35:11.984Z,73.80
2019-05-16T11:37:42.980Z,75.80
2019-05-16T11:40:13.873Z,76.80
2019-05-16T11:42:47.197Z,76.60
2019-05-16T11:45:17.093Z,77.10
2019-05-16T11:47:47.977Z,78.20
2019-05-16T11:50:18.854Z,79.30
2019-05-16T11:52:49.740Z,81.20
2019-05-16T11:55:20.630Z,78.60
2019-05-16T11:57:51.517Z,81.40
2019-05-16T12:00:22.395Z,80.50
2019-05-16T12:02:53.172Z,81.80
2019-05-16T12:05:26.823Z,82.00
2019-05-16T12:07:57.361Z,84.30
2019-05-16T12:10:28.338Z,84.00
2019-05-16T12:12:59.115Z,81.20
2019-05-16T12:15:31.146Z,82.70
2019-05-16T12:18:05.028Z,83.40
2019-05-16T12:20:34.052Z,83.30
2019-05-16T12:23:07.775Z,82.40
2019-05-16T12:25:38.593Z,82.50
2019-05-16T12:28:09.280Z,83.10
2019-05-16T12:30:40.466Z,83.40
2019-05-16T12:33:13.209Z,84.20
2019-05-16T12:35:43.614Z,83.70
2019-05-16T12:38:16.773Z,84.50
2019-05-16T12:40:48.001Z,82.40
2019-05-16T12:43:18.668Z,83.80
2019-05-16T12:45:49.756Z,84.50
2019-05-16T12:48:20.754Z,85.40
2019-05-16T12:50:51.788Z,85.90
2019-05-16T12:55:56.643Z,85.80
2019-05-16T12:58:37.528Z,86.90
2019-05-16T13:00:58.749Z,85.80
2019-05-16T13:03:37.799Z,87.00
2019-05-16T13:06:07.073Z,88.00
2019-05-16T13:08:37.969Z,87.80
2019-05-16T13:11:08.904Z,88.60
2019-05-16T13:13:39.655Z,89.10
2019-05-16T13:16:11.143Z,88.90
2019-05-16T13:18:42.011Z,89.60
2019-05-16T13:21:12.866Z,89.50
2019-05-16T13:23:43.659Z,89.90
2019-05-16T13:26:17.488Z,90.20
2019-05-16T13:28:47.571Z,90.00
2019-05-16T13:31:19.473Z,90.10
2019-05-16T13:33:50.661Z,90.10
2019-05-16T13:36:21.507Z,90.30
2019-05-16T13:38:52.946Z,90.30
2019-05-16T13:41:23.786Z,90.20
2019-05-16T13:43:54.770Z,90.30
2019-05-16T13:46:26.522Z,90.40
2019-05-16T13:48:57.622Z,90.20
2019-05-16T13:51:28.540Z,90.50
2019-05-16T13:53:59.297Z,90.30
2019-05-16T13:56:30.177Z,90.20
2019-05-16T13:59:00.983Z,90.60
2019-05-16T14:01:31.828Z,90.50
2019-05-16T14:04:02.921Z,90.60
2019-05-16T14:06:36.646Z,90.60
2019-05-16T14:09:08.694Z,90.70
2019-05-16T14:11:39.780Z,90.60
2019-05-16T14:14:10.776Z,91.00
2019-05-16T14:16:41.704Z,90.60
2019-05-16T14:19:12.647Z,90.50
2019-05-16T14:21:43.617Z,90.40
2019-05-16T14:24:17.813Z,90.50
2019-05-16T14:26:46.962Z,89.80
2019-05-16T14:29:18.359Z,90.40
2019-05-16T14:31:49.602Z,90.50
2019-05-16T14:34:20.698Z,90.00
2019-05-16T14:36:51.823Z,90.20
2019-05-16T14:39:22.813Z,90.50
2019-05-16T14:41:56.457Z,90.30
2019-05-16T14:44:28.616Z,90.30
2019-05-16T14:46:58.344Z,90.80
2019-05-16T14:49:29.197Z,90.40
2019-05-16T14:51:59.903Z,90.20
2019-05-16T14:54:30.962Z,90.30
2019-05-16T14:57:02.373Z,90.20
2019-05-16T14:59:33.610Z,90.10
2019-05-16T15:02:06.885Z,90.10
2019-05-16T15:04:37.759Z,87.70
2019-05-16T15:07:08.677Z,89.10
2019-05-16T15:09:39.357Z,89.10
2019-05-16T15:12:10.242Z,90.10
2019-05-16T15:14:41.078Z,89.80
2019-05-16T15:17:12.077Z,90.30
2019-05-16T15:19:43.115Z,90.20
2019-05-16T15:22:16.624Z,90.40
2019-05-16T15:24:46.349Z,90.00
2019-05-16T15:27:17.207Z,90.50
2019-05-16T15:29:50.931Z,90.40
2019-05-16T15:32:20.480Z,90.40
2019-05-16T15:34:51.549Z,90.50
2019-05-16T15:37:22.604Z,90.90
2019-05-16T15:39:54.307Z,90.50
2019-05-16T15:42:27.782Z,90.50
2019-05-16T15:44:58.007Z,90.00
2019-05-16T15:47:28.883Z,90.10
2019-05-16T15:49:59.999Z,90.00
2019-05-16T15:52:30.828Z,90.00
2019-05-16T15:55:01.848Z,89.40
2019-05-16T15:57:32.528Z,89.80
2019-05-16T16:00:03.423Z,90.00
2019-05-16T16:02:36.306Z,90.40
2019-05-16T16:05:08.128Z,90.70
2019-05-16T16:07:39.090Z,90.60
2019-05-16T16:10:11.181Z,90.80
2019-05-16T16:12:42.076Z,90.80
2019-05-16T16:15:13.051Z,90.90
2019-05-16T16:17:46.475Z,91.00
2019-05-16T16:20:16.908Z,91.10
2019-05-16T16:22:48.381Z,91.20
2019-05-16T16:25:19.282Z,91.10
2019-05-16T16:27:50.266Z,91.10
2019-05-16T16:30:20.941Z,91.10
2019-05-16T16:32:51.964Z,90.80
2019-05-16T16:35:26.081Z,90.00
2019-05-16T16:37:57.626Z,90.40
2019-05-16T16:40:28.715Z,90.40
2019-05-16T16:42:59.799Z,90.40
2019-05-16T16:45:31.157Z,90.60
2019-05-16T16:48:07.623Z,90.90
2019-05-16T16:50:37.250Z,90.20
2019-05-16T16:53:08.437Z,90.80
2019-05-16T16:55:39.417Z,91.30
2019-05-16T16:58:10.404Z,91.60
2019-05-16T17:00:41.397Z,91.60
2019-05-16T17:03:12.279Z,91.90
2019-05-16T17:05:43.063Z,91.90
2019-05-16T17:08:16.570Z,92.20
2019-05-16T17:10:47.722Z,92.30
2019-05-16T17:13:17.984Z,92.60
2019-05-16T17:15:48.710Z,92.80
2019-05-16T17:18:19.517Z,93.00
2019-05-16T17:20:50.186Z,92.70
2019-05-16T17:23:21.173Z,93.10
2019-05-16T17:25:52.011Z,93.20
2019-05-16T17:28:22.797Z,93.30
2019-05-16T17:30:53.681Z,93.30
2019-05-16T17:33:28.244Z,93.30
2019-05-16T17:35:57.204Z,93.40
2019-05-16T17:38:28.098Z,93.40
2019-05-16T17:40:59.186Z,92.70
2019-05-16T17:43:29.915Z,93.20
2019-05-16T17:46:00.575Z,93.10
2019-05-16T17:48:31.269Z,93.10
2019-05-16T17:51:02.089Z,93.00
2019-05-16T17:53:33.061Z,92.80
2019-05-16T17:56:06.642Z,92.60
2019-05-16T17:58:36.776Z,92.50
2019-05-16T18:01:08.772Z,92.20
2019-05-16T18:03:40.088Z,92.60
2019-05-16T18:06:10.973Z,92.50
2019-05-16T18:08:41.895Z,92.50
2019-05-16T18:11:12.536Z,91.90
2019-05-16T18:13:43.341Z,92.20
2019-05-16T18:16:14.273Z,91.90
2019-05-16T18:18:46.746Z,91.90
2019-05-16T18:21:17.434Z,92.20
2019-05-16T18:23:48.161Z,92.20
2019-05-16T18:26:19.149Z,92.20
2019-05-16T18:28:49.829Z,92.00
2019-05-16T18:31:20.623Z,92.00
2019-05-16T18:33:51.658Z,92.40
2019-05-16T18:36:22.315Z,92.40
2019-05-16T18:38:53.006Z,92.30
2019-05-16T18:41:24.066Z,92.50
2019-05-16T18:43:56.477Z,92.60
2019-05-16T18:46:27.078Z,92.70
2019-05-16T18:48:57.864Z,92.50
2019-05-16T18:51:28.539Z,92.90
2019-05-16T18:53:59.225Z,92.90
2019-05-16T18:56:29.902Z,93.00
2019-05-16T18:59:00.831Z,93.20
2019-05-16T19:01:31.673Z,93.40
2019-05-16T19:04:02.406Z,93.20
2019-05-16T19:06:33.145Z,93.20
2019-05-16T19:09:04.061Z,93.20
2019-05-16T19:11:36.635Z,93.30
2019-05-16T19:14:07.636Z,93.20
2019-05-16T19:16:38.437Z,93.30
2019-05-16T19:19:09.526Z,93.60
2019-05-16T19:21:40.516Z,93.30
2019-05-16T19:24:11.517Z,93.30
2019-05-16T19:26:42.710Z,93.30
2019-05-16T19:29:13.873Z,93.40
2019-05-16T19:31:46.954Z,93.40
2019-05-16T19:34:17.247Z,93.40
2019-05-16T19:36:48.296Z,93.30
2019-05-16T19:39:19.360Z,93.40
2019-05-16T19:41:50.174Z,93.50
2019-05-16T19:44:20.887Z,93.40
2019-05-16T19:46:51.557Z,93.40
2019-05-16T19:49:22.543Z,93.50
2019-05-16T19:51:53.226Z,93.40
2019-05-16T19:54:23.916Z,93.40
2019-05-16T19:56:56.515Z,93.40
2019-05-16T19:59:27.283Z,93.50
2019-05-16T20:01:58.008Z,93.50
2019-05-16T20:04:28.795Z,93.50
2019-05-16T20:06:59.809Z,93.50
2019-05-16T20:09:30.700Z,93.20
2019-05-16T20:12:01.451Z,93.50
2019-05-16T20:14:32.146Z,93.50
2019-05-16T20:17:03.827Z,93.60
2019-05-16T20:19:36.446Z,93.60
2019-05-16T20:22:07.691Z,93.60
2019-05-16T20:24:38.519Z,93.60
2019-05-16T20:27:09.696Z,93.60
2019-05-16T20:29:40.521Z,93.60
2019-05-16T20:32:11.688Z,93.50
2019-05-16T20:34:42.484Z,93.40
2019-05-16T20:37:13.111Z,93.40
2019-05-16T20:39:43.826Z,93.50
2019-05-16T20:42:16.916Z,93.50
2019-05-16T20:44:49.647Z,93.50
2019-05-16T20:47:18.626Z,93.50
2019-05-16T20:49:50.604Z,93.40
2019-05-16T20:52:21.483Z,93.40
2019-05-16T20:54:52.166Z,93.30
2019-05-16T20:57:22.845Z,93.30
2019-05-16T20:59:53.830Z,93.30
2019-05-16T21:02:26.908Z,93.20
2019-05-16T21:04:57.108Z,93.20
2019-05-16T21:07:28.184Z,93.20
2019-05-16T21:09:58.983Z,93.20
2019-05-16T21:12:29.758Z,93.10
2019-05-16T21:15:00.596Z,93.10
2019-05-16T21:17:31.257Z,93.00
2019-05-16T21:22:32.020Z,92.70
2019-05-16T21:25:02.966Z,92.80
2019-05-16T21:27:33.590Z,93.00
2019-05-16T21:30:04.334Z,93.10
2019-05-16T21:32:36.519Z,93.40
2019-05-16T21:35:08.874Z,93.00
2019-05-16T21:37:39.537Z,93.00
2019-05-16T21:40:10.537Z,93.10
2019-05-16T21:42:41.235Z,93.10
2019-05-16T21:45:11.899Z,93.00
2019-05-16T21:47:43.550Z,93.20
2019-05-16T21:50:16.310Z,93.30
2019-05-16T21:52:47.030Z,93.30
2019-05-16T21:55:17.759Z,93.80
2019-05-16T21:57:48.849Z,93.40
2019-05-16T22:00:22.757Z,93.40
2019-05-16T22:02:53.833Z,93.30
2019-05-16T22:05:24.807Z,93.30
2019-05-16T22:07:56.735Z,93.30
2019-05-16T22:10:27.805Z,93.30
2019-05-16T22:12:58.682Z,93.30
2019-05-16T22:15:29.685Z,93.30
2019-05-16T22:18:00.512Z,93.00
2019-05-16T22:20:31.522Z,93.20
2019-05-16T22:23:02.309Z,93.30
2019-05-16T22:25:33.098Z,93.20
2019-05-16T22:28:03.993Z,92.80
2019-05-16T22:30:36.531Z,93.10
2019-05-16T22:33:09.266Z,93.10
2019-05-16T22:35:39.833Z,93.10
2019-05-16T22:38:10.786Z,93.10
2019-05-16T22:40:41.791Z,93.10
2019-05-16T22:43:12.707Z,93.10
2019-05-16T22:45:43.695Z,93.20
2019-05-16T22:48:17.353Z,93.10
2019-05-16T22:50:48.669Z,93.20
2019-05-16T22:53:19.388Z,93.10
2019-05-16T22:55:50.351Z,93.10
2019-05-16T22:58:21.144Z,93.00
2019-05-16T23:00:51.933Z,93.10
2019-05-16T23:03:23.039Z,93.10
2019-05-16T23:05:56.411Z,93.10
2019-05-16T23:08:27.238Z,93.00
2019-05-16T23:10:58.259Z,93.00
2019-05-16T23:13:29.229Z,93.00
2019-05-16T23:16:00.134Z,92.90
2019-05-16T23:18:30.794Z,92.90
2019-05-16T23:21:01.708Z,92.90
2019-05-16T23:23:32.552Z,92.80
2019-05-16T23:26:03.558Z,92.80
2019-05-16T23:28:36.564Z,92.70
2019-05-16T23:31:06.961Z,92.70
2019-05-16T23:33:37.977Z,92.60
2019-05-16T23:36:08.869Z,92.50
2019-05-16T23:38:39.779Z,92.60
2019-05-16T23:41:10.687Z,92.40
2019-05-16T23:43:41.538Z,92.40
2019-05-16T23:46:12.691Z,92.40
2019-05-16T23:48:47.242Z,92.30
2019-05-16T23:51:18.510Z,92.20
2019-05-16T23:53:49.494Z,92.30
2019-05-16T23:56:20.550Z,92.00
2019-05-16T23:58:51.478Z,92.10
